メインページ
METAR-TAF:

METAR-TAF

空港 :

フォートスミス, ノースウェスト準州, カナダ

緯度: 60-01N, 経度: 111-57W, 海抜: 203m

現時点の気象観測

当レポートは42分前の11:01(UTC)に作成
南東の風 5kt
気温 -27°C
湿度 75%
気圧 1012 hPa
視程: 24.1km
高度6900ftの曇り
小雪

METAR: CYSM 141101Z 14005KT 15SM -SN OVC069 M27/M30 A2987 RMK AC8 SLP149

時間: 04:43 (11:43 UTC)

予報

当レポートは6時間5分前の05:38(UTC)に作成
予報は14日の 06時(UTC)から 14日の 18時(UTC)まで有効
南/南東の風 6kt
視程: 10km
高度22000ftの雲は散在している
14日の 09時(UTC)から 14日の 11時(UTC)まで徐々に
高度12000ftの千切れ雲あり
14日の 1200時(UTC)から
南東の風 5kt
視程: 10km
高度3000ftの雲は散在している
高度9000ftの曇り
14日の 12時(UTC)から 14日の 15時(UTC)まで一時的に
視程: 6.4km
高度3000ftの
弱いにわか雪
14日の 1600時(UTC)から
の風 3kt
視程: 10km
高度2500ftの千切れ雲あり
14日の 16時(UTC)から 14日の 18時(UTC)まで一時的に
視程: 8.0km
小雪

TAF: CYSM 140538Z 1406/1418 15006KT P6SM SCT220 BECMG 1409/1411 BKN120 FM141200 13005KT P6SM SCT030 OVC090 TEMPO 1412/1415 4SM -SHSN VV030 FM141600 08003KT P6SM BKN025 TEMPO 1416/1418 5SM -SN RMK NXT FCST BY 141200Z

4,000以上の空港の気象観測と天気予報(METAR報とTAF報)

利用可能な観測所は地図上に黄色い丸と赤い丸で示す。

丸の上にカーソルを重ねると観測所名を参照できる。

次にクリックすると気象観測と天気予報を参照できる。

マップの切り替え:黒色「×」印の緑ボタンをクリックして拡大、「-」印の緑ボタンをクリックして縮小、緑色の三角印をクリックして隣りの地図に切り替え


METAR-TAF: